sensor_id;sensor_type;location;lat;lon;timestamp;P1;durP1;ratioP1;P2;durP2;ratioP2
70270;SDS011;57680;54.292;18.598;2022-10-14T00:01:33;32.47;;;15.15;;
70270;SDS011;57680;54.292;18.598;2022-10-14T00:03:59;29.93;;;14.33;;
70270;SDS011;57680;54.292;18.598;2022-10-14T00:06:28;30.07;;;14.60;;
70270;SDS011;57680;54.292;18.598;2022-10-14T00:08:55;29.27;;;14.07;;
70270;SDS011;57680;54.292;18.598;2022-10-14T00:11:26;29.98;;;14.10;;
70270;SDS011;57680;54.292;18.598;2022-10-14T00:13:54;30.20;;;14.25;;
70270;SDS011;57680;54.292;18.598;2022-10-14T00:16:23;27.30;;;13.40;;
70270;SDS011;57680;54.292;18.598;2022-10-14T00:18:53;31.50;;;14.05;;
70270;SDS011;57680;54.292;18.598;2022-10-14T00:21:19;27.90;;;12.80;;
70270;SDS011;57680;54.292;18.598;2022-10-14T00:23:44;29.00;;;13.57;;
70270;SDS011;57680;54.292;18.598;2022-10-14T00:26:24;30.88;;;12.73;;
70270;SDS011;57680;54.292;18.598;2022-10-14T00:28:52;27.90;;;12.45;;
70270;SDS011;57680;54.292;18.598;2022-10-14T00:31:18;27.15;;;13.05;;
70270;SDS011;57680;54.292;18.598;2022-10-14T00:33:44;31.60;;;12.93;;
70270;SDS011;57680;54.292;18.598;2022-10-14T00:36:11;27.30;;;12.32;;
70270;SDS011;57680;54.292;18.598;2022-10-14T00:38:38;28.00;;;12.60;;
70270;SDS011;57680;54.292;18.598;2022-10-14T00:41:04;28.13;;;13.30;;
70270;SDS011;57680;54.292;18.598;2022-10-14T00:46:20;28.58;;;13.93;;
70270;SDS011;57680;54.292;18.598;2022-10-14T00:48:47;24.95;;;12.77;;
70270;SDS011;57680;54.292;18.598;2022-10-14T00:51:12;30.00;;;12.63;;
70270;SDS011;57680;54.292;18.598;2022-10-14T00:53:38;28.88;;;12.50;;
70270;SDS011;57680;54.292;18.598;2022-10-14T00:56:08;26.83;;;12.60;;
70270;SDS011;57680;54.292;18.598;2022-10-14T00:58:34;28.08;;;12.63;;
70270;SDS011;57680;54.292;18.598;2022-10-14T01:01:00;28.50;;;13.25;;
70270;SDS011;57680;54.292;18.598;2022-10-14T01:03:26;28.80;;;12.63;;
70270;SDS011;57680;54.292;18.598;2022-10-14T01:09:13;28.30;;;13.07;;
70270;SDS011;57680;54.292;18.598;2022-10-14T01:22:35;27.30;;;12.73;;
70270;SDS011;57680;54.292;18.598;2022-10-14T01:30:49;26.67;;;13.35;;
70270;SDS011;57680;54.292;18.598;2022-10-14T01:33:26;32.72;;;14.00;;
70270;SDS011;57680;54.292;18.598;2022-10-14T01:38:33;27.63;;;13.93;;
70270;SDS011;57680;54.292;18.598;2022-10-14T01:41:06;28.88;;;13.82;;
70270;SDS011;57680;54.292;18.598;2022-10-14T01:43:37;29.48;;;13.75;;
70270;SDS011;57680;54.292;18.598;2022-10-14T01:46:05;30.10;;;13.85;;
70270;SDS011;57680;54.292;18.598;2022-10-14T01:48:32;29.53;;;13.93;;
70270;SDS011;57680;54.292;18.598;2022-10-14T01:51:02;27.45;;;13.23;;
70270;SDS011;57680;54.292;18.598;2022-10-14T01:53:41;30.02;;;14.40;;
70270;SDS011;57680;54.292;18.598;2022-10-14T01:56:22;28.80;;;13.93;;
70270;SDS011;57680;54.292;18.598;2022-10-14T01:58:50;31.13;;;13.60;;
70270;SDS011;57680;54.292;18.598;2022-10-14T02:01:16;28.10;;;13.20;;
70270;SDS011;57680;54.292;18.598;2022-10-14T02:03:44;28.42;;;13.75;;
70270;SDS011;57680;54.292;18.598;2022-10-14T02:06:13;31.80;;;13.32;;
70270;SDS011;57680;54.292;18.598;2022-10-14T02:11:16;28.77;;;13.10;;
70270;SDS011;57680;54.292;18.598;2022-10-14T02:19:13;28.58;;;14.35;;
70270;SDS011;57680;54.292;18.598;2022-10-14T02:21:52;30.48;;;14.13;;
70270;SDS011;57680;54.292;18.598;2022-10-14T02:24:30;33.55;;;14.57;;
70270;SDS011;57680;54.292;18.598;2022-10-14T02:27:00;31.38;;;14.38;;
70270;SDS011;57680;54.292;18.598;2022-10-14T02:29:29;30.10;;;14.03;;
70270;SDS011;57680;54.292;18.598;2022-10-14T02:31:57;31.77;;;14.43;;
70270;SDS011;57680;54.292;18.598;2022-10-14T02:34:24;27.98;;;14.27;;
70270;SDS011;57680;54.292;18.598;2022-10-14T02:36:51;34.90;;;14.93;;
70270;SDS011;57680;54.292;18.598;2022-10-14T02:39:20;29.52;;;13.25;;
70270;SDS011;57680;54.292;18.598;2022-10-14T02:41:59;28.90;;;13.20;;
70270;SDS011;57680;54.292;18.598;2022-10-14T02:44:25;33.65;;;13.98;;
70270;SDS011;57680;54.292;18.598;2022-10-14T02:46:53;30.90;;;14.27;;
70270;SDS011;57680;54.292;18.598;2022-10-14T02:49:19;30.75;;;14.45;;
70270;SDS011;57680;54.292;18.598;2022-10-14T02:51:45;28.45;;;13.65;;
70270;SDS011;57680;54.292;18.598;2022-10-14T02:54:10;29.13;;;13.70;;
70270;SDS011;57680;54.292;18.598;2022-10-14T02:56:36;28.97;;;13.87;;
70270;SDS011;57680;54.292;18.598;2022-10-14T02:59:01;28.77;;;13.60;;
70270;SDS011;57680;54.292;18.598;2022-10-14T03:01:27;29.33;;;14.70;;
70270;SDS011;57680;54.292;18.598;2022-10-14T03:03:52;36.37;;;14.27;;
70270;SDS011;57680;54.292;18.598;2022-10-14T03:06:18;31.00;;;14.63;;
70270;SDS011;57680;54.292;18.598;2022-10-14T03:08:43;29.45;;;13.90;;
70270;SDS011;57680;54.292;18.598;2022-10-14T03:11:09;30.07;;;14.50;;
70270;SDS011;57680;54.292;18.598;2022-10-14T03:13:34;32.97;;;15.13;;
70270;SDS011;57680;54.292;18.598;2022-10-14T03:15:59;32.57;;;15.13;;
70270;SDS011;57680;54.292;18.598;2022-10-14T03:18:25;30.40;;;14.67;;
70270;SDS011;57680;54.292;18.598;2022-10-14T03:20:50;30.97;;;15.13;;
70270;SDS011;57680;54.292;18.598;2022-10-14T03:23:16;33.20;;;15.27;;
70270;SDS011;57680;54.292;18.598;2022-10-14T03:25:44;33.40;;;14.53;;
70270;SDS011;57680;54.292;18.598;2022-10-14T03:28:10;32.95;;;14.48;;
70270;SDS011;57680;54.292;18.598;2022-10-14T03:30:36;30.98;;;14.38;;
70270;SDS011;57680;54.292;18.598;2022-10-14T03:33:02;32.30;;;15.77;;
70270;SDS011;57680;54.292;18.598;2022-10-14T03:35:27;30.57;;;14.83;;
70270;SDS011;57680;54.292;18.598;2022-10-14T03:37:53;29.92;;;14.98;;
70270;SDS011;57680;54.292;18.598;2022-10-14T03:40:19;29.73;;;14.03;;
70270;SDS011;57680;54.292;18.598;2022-10-14T03:42:44;30.83;;;14.57;;
70270;SDS011;57680;54.292;18.598;2022-10-14T03:45:10;30.33;;;14.82;;
70270;SDS011;57680;54.292;18.598;2022-10-14T03:47:36;32.00;;;15.23;;
70270;SDS011;57680;54.292;18.598;2022-10-14T03:50:01;30.87;;;14.60;;
70270;SDS011;57680;54.292;18.598;2022-10-14T03:52:29;33.55;;;15.18;;
70270;SDS011;57680;54.292;18.598;2022-10-14T03:54:54;32.80;;;15.10;;
70270;SDS011;57680;54.292;18.598;2022-10-14T03:57:20;33.50;;;14.80;;
70270;SDS011;57680;54.292;18.598;2022-10-14T03:59:45;33.83;;;15.87;;
70270;SDS011;57680;54.292;18.598;2022-10-14T04:02:10;35.17;;;15.40;;
70270;SDS011;57680;54.292;18.598;2022-10-14T04:04:36;37.22;;;15.75;;
70270;SDS011;57680;54.292;18.598;2022-10-14T04:07:01;32.60;;;15.93;;
70270;SDS011;57680;54.292;18.598;2022-10-14T04:09:27;31.77;;;15.73;;
70270;SDS011;57680;54.292;18.598;2022-10-14T04:11:53;33.38;;;14.95;;
70270;SDS011;57680;54.292;18.598;2022-10-14T04:14:22;38.33;;;16.70;;
70270;SDS011;57680;54.292;18.598;2022-10-14T04:16:48;30.53;;;15.20;;
70270;SDS011;57680;54.292;18.598;2022-10-14T04:19:13;31.90;;;15.82;;
70270;SDS011;57680;54.292;18.598;2022-10-14T04:21:39;39.13;;;17.23;;
70270;SDS011;57680;54.292;18.598;2022-10-14T04:24:04;32.03;;;16.07;;
70270;SDS011;57680;54.292;18.598;2022-10-14T04:26:30;35.17;;;15.98;;
70270;SDS011;57680;54.292;18.598;2022-10-14T04:28:55;34.27;;;16.43;;
70270;SDS011;57680;54.292;18.598;2022-10-14T04:31:21;32.67;;;16.20;;
70270;SDS011;57680;54.292;18.598;2022-10-14T04:33:46;37.15;;;16.50;;
70270;SDS011;57680;54.292;18.598;2022-10-14T04:36:12;35.80;;;17.00;;
70270;SDS011;57680;54.292;18.598;2022-10-14T04:38:38;37.93;;;17.20;;
70270;SDS011;57680;54.292;18.598;2022-10-14T04:41:03;40.88;;;17.60;;
70270;SDS011;57680;54.292;18.598;2022-10-14T04:43:29;37.03;;;16.50;;
70270;SDS011;57680;54.292;18.598;2022-10-14T04:45:54;40.03;;;17.67;;
70270;SDS011;57680;54.292;18.598;2022-10-14T04:48:19;35.80;;;17.00;;
70270;SDS011;57680;54.292;18.598;2022-10-14T04:50:48;40.83;;;17.50;;
70270;SDS011;57680;54.292;18.598;2022-10-14T04:53:15;39.53;;;17.45;;
70270;SDS011;57680;54.292;18.598;2022-10-14T04:55:40;37.40;;;16.77;;
70270;SDS011;57680;54.292;18.598;2022-10-14T04:58:06;36.70;;;17.57;;
70270;SDS011;57680;54.292;18.598;2022-10-14T05:00:31;49.37;;;17.53;;
70270;SDS011;57680;54.292;18.598;2022-10-14T05:02:57;40.80;;;17.95;;
70270;SDS011;57680;54.292;18.598;2022-10-14T05:05:22;39.40;;;18.80;;
70270;SDS011;57680;54.292;18.598;2022-10-14T05:07:47;38.83;;;17.70;;
70270;SDS011;57680;54.292;18.598;2022-10-14T05:10:13;44.00;;;18.23;;
70270;SDS011;57680;54.292;18.598;2022-10-14T05:12:38;41.95;;;18.80;;
70270;SDS011;57680;54.292;18.598;2022-10-14T05:15:04;40.13;;;17.90;;
70270;SDS011;57680;54.292;18.598;2022-10-14T05:17:31;47.13;;;19.02;;
70270;SDS011;57680;54.292;18.598;2022-10-14T05:19:57;40.27;;;18.83;;
70270;SDS011;57680;54.292;18.598;2022-10-14T05:22:22;47.90;;;19.35;;
70270;SDS011;57680;54.292;18.598;2022-10-14T05:24:49;39.17;;;18.57;;
70270;SDS011;57680;54.292;18.598;2022-10-14T05:27:15;42.10;;;18.52;;
70270;SDS011;57680;54.292;18.598;2022-10-14T05:29:40;56.10;;;18.65;;
70270;SDS011;57680;54.292;18.598;2022-10-14T05:32:06;42.30;;;17.77;;
70270;SDS011;57680;54.292;18.598;2022-10-14T05:34:32;44.05;;;19.23;;
70270;SDS011;57680;54.292;18.598;2022-10-14T05:36:57;44.70;;;19.90;;
70270;SDS011;57680;54.292;18.598;2022-10-14T05:39:23;46.83;;;19.50;;
70270;SDS011;57680;54.292;18.598;2022-10-14T05:41:48;42.90;;;19.33;;
70270;SDS011;57680;54.292;18.598;2022-10-14T05:44:14;44.15;;;19.08;;
70270;SDS011;57680;54.292;18.598;2022-10-14T05:46:39;44.13;;;20.10;;
70270;SDS011;57680;54.292;18.598;2022-10-14T05:49:04;40.47;;;18.77;;
70270;SDS011;57680;54.292;18.598;2022-10-14T05:51:33;46.97;;;18.77;;
70270;SDS011;57680;54.292;18.598;2022-10-14T05:53:59;42.95;;;19.77;;
70270;SDS011;57680;54.292;18.598;2022-10-14T05:56:24;46.77;;;20.10;;
70270;SDS011;57680;54.292;18.598;2022-10-14T05:58:49;45.08;;;19.45;;
70270;SDS011;57680;54.292;18.598;2022-10-14T06:01:15;44.33;;;21.00;;
70270;SDS011;57680;54.292;18.598;2022-10-14T06:03:40;44.53;;;19.87;;
70270;SDS011;57680;54.292;18.598;2022-10-14T06:06:09;39.85;;;19.17;;
70270;SDS011;57680;54.292;18.598;2022-10-14T06:08:36;42.10;;;19.98;;
70270;SDS011;57680;54.292;18.598;2022-10-14T06:11:02;48.47;;;19.60;;
70270;SDS011;57680;54.292;18.598;2022-10-14T06:13:28;49.85;;;20.45;;
70270;SDS011;57680;54.292;18.598;2022-10-14T06:15:54;49.73;;;20.63;;
70270;SDS011;57680;54.292;18.598;2022-10-14T06:18:19;47.43;;;20.53;;
70270;SDS011;57680;54.292;18.598;2022-10-14T06:20:50;50.20;;;21.67;;
70270;SDS011;57680;54.292;18.598;2022-10-14T06:23:17;50.63;;;20.43;;
70270;SDS011;57680;54.292;18.598;2022-10-14T06:25:42;47.73;;;21.57;;
70270;SDS011;57680;54.292;18.598;2022-10-14T06:28:08;46.20;;;20.07;;
70270;SDS011;57680;54.292;18.598;2022-10-14T06:30:34;45.50;;;21.63;;
70270;SDS011;57680;54.292;18.598;2022-10-14T06:32:59;44.30;;;20.67;;
70270;SDS011;57680;54.292;18.598;2022-10-14T06:35:25;45.43;;;21.07;;
70270;SDS011;57680;54.292;18.598;2022-10-14T06:37:51;45.38;;;20.00;;
70270;SDS011;57680;54.292;18.598;2022-10-14T06:40:16;43.17;;;19.80;;
70270;SDS011;57680;54.292;18.598;2022-10-14T06:42:42;42.90;;;20.17;;
70270;SDS011;57680;54.292;18.598;2022-10-14T06:45:07;45.03;;;20.13;;
70270;SDS011;57680;54.292;18.598;2022-10-14T06:47:33;42.13;;;20.50;;
70270;SDS011;57680;54.292;18.598;2022-10-14T06:49:59;40.80;;;19.98;;
70270;SDS011;57680;54.292;18.598;2022-10-14T06:52:24;40.53;;;19.97;;
70270;SDS011;57680;54.292;18.598;2022-10-14T06:54:49;45.23;;;20.30;;
70270;SDS011;57680;54.292;18.598;2022-10-14T06:57:15;44.10;;;20.03;;
70270;SDS011;57680;54.292;18.598;2022-10-14T06:59:40;42.10;;;21.20;;
70270;SDS011;57680;54.292;18.598;2022-10-14T07:02:06;43.00;;;20.53;;
70270;SDS011;57680;54.292;18.598;2022-10-14T07:04:32;42.63;;;20.30;;
70270;SDS011;57680;54.292;18.598;2022-10-14T07:06:58;44.47;;;20.33;;
70270;SDS011;57680;54.292;18.598;2022-10-14T07:09:23;42.20;;;20.13;;
70270;SDS011;57680;54.292;18.598;2022-10-14T07:11:49;42.33;;;19.37;;
70270;SDS011;57680;54.292;18.598;2022-10-14T07:14:14;38.63;;;18.73;;
70270;SDS011;57680;54.292;18.598;2022-10-14T07:16:43;43.97;;;19.80;;
70270;SDS011;57680;54.292;18.598;2022-10-14T07:19:08;38.65;;;18.95;;
70270;SDS011;57680;54.292;18.598;2022-10-14T07:21:34;41.53;;;20.57;;
70270;SDS011;57680;54.292;18.598;2022-10-14T07:23:59;37.88;;;19.13;;
70270;SDS011;57680;54.292;18.598;2022-10-14T07:26:25;43.20;;;20.53;;
70270;SDS011;57680;54.292;18.598;2022-10-14T07:28:50;39.63;;;19.40;;
70270;SDS011;57680;54.292;18.598;2022-10-14T07:31:16;42.70;;;20.63;;
70270;SDS011;57680;54.292;18.598;2022-10-14T07:33:41;43.03;;;20.55;;
70270;SDS011;57680;54.292;18.598;2022-10-14T07:36:09;46.77;;;20.47;;
70270;SDS011;57680;54.292;18.598;2022-10-14T07:38:36;42.15;;;18.75;;
70270;SDS011;57680;54.292;18.598;2022-10-14T07:41:10;40.15;;;20.00;;
70270;SDS011;57680;54.292;18.598;2022-10-14T07:43:48;40.13;;;20.27;;
70270;SDS011;57680;54.292;18.598;2022-10-14T07:46:16;40.55;;;19.40;;
70270;SDS011;57680;54.292;18.598;2022-10-14T07:48:53;39.35;;;18.42;;
70270;SDS011;57680;54.292;18.598;2022-10-14T07:51:19;46.55;;;19.55;;
70270;SDS011;57680;54.292;18.598;2022-10-14T07:53:45;42.33;;;20.10;;
70270;SDS011;57680;54.292;18.598;2022-10-14T07:56:12;40.05;;;19.77;;
70270;SDS011;57680;54.292;18.598;2022-10-14T07:58:37;38.83;;;18.73;;
70270;SDS011;57680;54.292;18.598;2022-10-14T08:01:03;42.07;;;20.30;;
70270;SDS011;57680;54.292;18.598;2022-10-14T08:03:28;38.53;;;19.73;;
70270;SDS011;57680;54.292;18.598;2022-10-14T08:06:00;40.07;;;20.30;;
70270;SDS011;57680;54.292;18.598;2022-10-14T08:08:27;37.10;;;19.33;;
70270;SDS011;57680;54.292;18.598;2022-10-14T08:11:03;41.20;;;20.17;;
70270;SDS011;57680;54.292;18.598;2022-10-14T08:13:31;40.28;;;19.88;;
70270;SDS011;57680;54.292;18.598;2022-10-14T08:15:56;38.80;;;19.63;;
70270;SDS011;57680;54.292;18.598;2022-10-14T08:18:22;42.60;;;19.97;;
70270;SDS011;57680;54.292;18.598;2022-10-14T08:20:48;41.17;;;20.48;;
70270;SDS011;57680;54.292;18.598;2022-10-14T08:23:13;43.40;;;20.77;;
70270;SDS011;57680;54.292;18.598;2022-10-14T08:25:39;38.70;;;20.70;;
70270;SDS011;57680;54.292;18.598;2022-10-14T08:28:04;42.13;;;20.08;;
70270;SDS011;57680;54.292;18.598;2022-10-14T08:30:30;40.10;;;20.63;;
70270;SDS011;57680;54.292;18.598;2022-10-14T08:32:55;40.63;;;19.03;;
70270;SDS011;57680;54.292;18.598;2022-10-14T08:35:21;42.88;;;20.65;;
70270;SDS011;57680;54.292;18.598;2022-10-14T08:37:59;43.47;;;20.93;;
70270;SDS011;57680;54.292;18.598;2022-10-14T08:40:26;43.33;;;20.48;;
70270;SDS011;57680;54.292;18.598;2022-10-14T08:43:00;43.88;;;22.10;;
70270;SDS011;57680;54.292;18.598;2022-10-14T08:45:41;44.93;;;20.83;;
70270;SDS011;57680;54.292;18.598;2022-10-14T08:48:12;41.25;;;19.17;;
70270;SDS011;57680;54.292;18.598;2022-10-14T08:50:47;41.60;;;20.88;;
70270;SDS011;57680;54.292;18.598;2022-10-14T08:53:21;43.85;;;20.80;;
70270;SDS011;57680;54.292;18.598;2022-10-14T08:55:52;43.55;;;20.92;;
70270;SDS011;57680;54.292;18.598;2022-10-14T08:58:37;39.10;;;20.80;;
70270;SDS011;57680;54.292;18.598;2022-10-14T09:01:28;38.30;;;20.77;;
70270;SDS011;57680;54.292;18.598;2022-10-14T09:03:59;40.28;;;19.83;;
70270;SDS011;57680;54.292;18.598;2022-10-14T09:06:28;39.60;;;20.08;;
70270;SDS011;57680;54.292;18.598;2022-10-14T09:09:07;39.40;;;20.77;;
70270;SDS011;57680;54.292;18.598;2022-10-14T09:11:39;41.80;;;20.17;;
70270;SDS011;57680;54.292;18.598;2022-10-14T09:14:08;40.17;;;20.65;;
70270;SDS011;57680;54.292;18.598;2022-10-14T09:16:39;39.72;;;20.25;;
70270;SDS011;57680;54.292;18.598;2022-10-14T09:28:30;39.92;;;20.55;;
70270;SDS011;57680;54.292;18.598;2022-10-14T09:31:03;42.72;;;20.65;;
70270;SDS011;57680;54.292;18.598;2022-10-14T09:33:29;41.20;;;20.70;;
70270;SDS011;57680;54.292;18.598;2022-10-14T09:35:55;38.30;;;19.98;;
70270;SDS011;57680;54.292;18.598;2022-10-14T09:38:22;36.63;;;19.83;;
70270;SDS011;57680;54.292;18.598;2022-10-14T09:40:49;40.33;;;21.40;;
70270;SDS011;57680;54.292;18.598;2022-10-14T09:43:19;37.00;;;20.30;;
70270;SDS011;57680;54.292;18.598;2022-10-14T09:45:55;40.92;;;20.55;;
70270;SDS011;57680;54.292;18.598;2022-10-14T09:51:07;39.97;;;20.27;;
70270;SDS011;57680;54.292;18.598;2022-10-14T09:53:53;37.90;;;20.05;;
70270;SDS011;57680;54.292;18.598;2022-10-14T09:56:26;40.85;;;19.92;;
70270;SDS011;57680;54.292;18.598;2022-10-14T09:58:58;38.97;;;19.95;;
70270;SDS011;57680;54.292;18.598;2022-10-14T10:01:27;39.30;;;20.35;;
70270;SDS011;57680;54.292;18.598;2022-10-14T10:03:54;40.20;;;20.43;;
70270;SDS011;57680;54.292;18.598;2022-10-14T10:06:24;37.25;;;19.45;;
70270;SDS011;57680;54.292;18.598;2022-10-14T10:13:54;39.58;;;20.83;;
70270;SDS011;57680;54.292;18.598;2022-10-14T10:16:24;40.60;;;21.50;;
70270;SDS011;57680;54.292;18.598;2022-10-14T10:18:52;40.45;;;21.48;;
70270;SDS011;57680;54.292;18.598;2022-10-14T10:21:29;42.58;;;21.90;;
70270;SDS011;57680;54.292;18.598;2022-10-14T10:24:01;38.45;;;21.13;;
70270;SDS011;57680;54.292;18.598;2022-10-14T10:26:32;41.20;;;21.65;;
70270;SDS011;57680;54.292;18.598;2022-10-14T10:28:59;35.47;;;19.37;;
70270;SDS011;57680;54.292;18.598;2022-10-14T10:36:54;35.90;;;19.13;;
70270;SDS011;57680;54.292;18.598;2022-10-14T10:42:15;42.40;;;19.87;;
70270;SDS011;57680;54.292;18.598;2022-10-14T11:00:20;37.22;;;20.85;;
70270;SDS011;57680;54.292;18.598;2022-10-14T11:19:34;38.22;;;20.30;;
70270;SDS011;57680;54.292;18.598;2022-10-14T11:28:05;41.17;;;20.53;;
70270;SDS011;57680;54.292;18.598;2022-10-14T11:40:05;43.13;;;21.80;;
70270;SDS011;57680;54.292;18.598;2022-10-14T11:47:40;39.15;;;21.20;;
70270;SDS011;57680;54.292;18.598;2022-10-14T11:55:54;40.27;;;21.50;;
70270;SDS011;57680;54.292;18.598;2022-10-14T11:58:33;41.28;;;22.17;;
70270;SDS011;57680;54.292;18.598;2022-10-14T12:01:19;43.08;;;22.48;;
70270;SDS011;57680;54.292;18.598;2022-10-14T12:03:57;43.38;;;22.02;;
70270;SDS011;57680;54.292;18.598;2022-10-14T12:06:47;42.97;;;22.05;;
70270;SDS011;57680;54.292;18.598;2022-10-14T12:12:07;41.42;;;21.52;;
70270;SDS011;57680;54.292;18.598;2022-10-14T12:14:43;40.80;;;22.70;;
70270;SDS011;57680;54.292;18.598;2022-10-14T12:17:28;41.10;;;22.48;;
70270;SDS011;57680;54.292;18.598;2022-10-14T12:22:46;38.87;;;20.73;;
70270;SDS011;57680;54.292;18.598;2022-10-14T12:25:15;40.33;;;21.38;;
70270;SDS011;57680;54.292;18.598;2022-10-14T12:27:45;74.10;;;22.67;;
70270;SDS011;57680;54.292;18.598;2022-10-14T12:33:02;37.03;;;20.33;;
70270;SDS011;57680;54.292;18.598;2022-10-14T12:38:25;37.85;;;20.08;;
70270;SDS011;57680;54.292;18.598;2022-10-14T12:40:53;38.15;;;19.15;;
70270;SDS011;57680;54.292;18.598;2022-10-14T12:43:20;41.60;;;20.92;;
70270;SDS011;57680;54.292;18.598;2022-10-14T12:45:49;39.70;;;20.33;;
70270;SDS011;57680;54.292;18.598;2022-10-14T12:48:32;38.17;;;21.47;;
70270;SDS011;57680;54.292;18.598;2022-10-14T12:51:09;41.58;;;20.20;;
70270;SDS011;57680;54.292;18.598;2022-10-14T12:53:39;43.92;;;20.92;;
70270;SDS011;57680;54.292;18.598;2022-10-14T12:56:26;42.20;;;20.27;;
70270;SDS011;57680;54.292;18.598;2022-10-14T12:58:56;45.20;;;20.75;;
70270;SDS011;57680;54.292;18.598;2022-10-14T13:01:25;45.73;;;21.17;;
70270;SDS011;57680;54.292;18.598;2022-10-14T13:03:55;36.55;;;20.77;;
70270;SDS011;57680;54.292;18.598;2022-10-14T13:11:36;39.40;;;20.73;;
70270;SDS011;57680;54.292;18.598;2022-10-14T13:14:20;37.80;;;21.20;;
70270;SDS011;57680;54.292;18.598;2022-10-14T13:19:49;40.22;;;19.48;;
70270;SDS011;57680;54.292;18.598;2022-10-14T13:24:49;30.15;;;16.52;;
70270;SDS011;57680;54.292;18.598;2022-10-14T13:27:51;27.27;;;15.40;;
70270;SDS011;57680;54.292;18.598;2022-10-14T13:30:22;31.40;;;16.58;;
70270;SDS011;57680;54.292;18.598;2022-10-14T13:32:56;34.72;;;18.30;;
70270;SDS011;57680;54.292;18.598;2022-10-14T13:35:31;34.88;;;18.40;;
70270;SDS011;57680;54.292;18.598;2022-10-14T13:38:10;33.60;;;17.52;;
70270;SDS011;57680;54.292;18.598;2022-10-14T13:40:42;39.67;;;16.27;;
70270;SDS011;57680;54.292;18.598;2022-10-14T13:43:21;29.73;;;14.65;;
70270;SDS011;57680;54.292;18.598;2022-10-14T13:48:44;34.95;;;15.77;;
70270;SDS011;57680;54.292;18.598;2022-10-14T13:53:49;38.27;;;18.97;;
70270;SDS011;57680;54.292;18.598;2022-10-14T13:56:20;38.22;;;19.25;;
70270;SDS011;57680;54.292;18.598;2022-10-14T13:58:48;34.30;;;18.00;;
70270;SDS011;57680;54.292;18.598;2022-10-14T14:01:14;32.85;;;17.60;;
70270;SDS011;57680;54.292;18.598;2022-10-14T14:03:43;36.85;;;19.50;;
70270;SDS011;57680;54.292;18.598;2022-10-14T14:06:12;34.40;;;16.13;;
70270;SDS011;57680;54.292;18.598;2022-10-14T14:11:08;24.63;;;13.18;;
70270;SDS011;57680;54.292;18.598;2022-10-14T14:13:46;24.55;;;11.90;;
70270;SDS011;57680;54.292;18.598;2022-10-14T14:16:37;24.58;;;12.38;;
70270;SDS011;57680;54.292;18.598;2022-10-14T14:19:06;25.33;;;12.10;;
70270;SDS011;57680;54.292;18.598;2022-10-14T14:21:43;25.45;;;12.75;;
70270;SDS011;57680;54.292;18.598;2022-10-14T14:24:19;25.63;;;11.73;;
70270;SDS011;57680;54.292;18.598;2022-10-14T14:26:51;24.57;;;12.00;;
70270;SDS011;57680;54.292;18.598;2022-10-14T14:29:18;26.67;;;13.35;;
70270;SDS011;57680;54.292;18.598;2022-10-14T14:31:46;22.95;;;12.18;;
70270;SDS011;57680;54.292;18.598;2022-10-14T14:34:17;22.70;;;11.52;;
70270;SDS011;57680;54.292;18.598;2022-10-14T14:36:45;22.25;;;10.45;;
70270;SDS011;57680;54.292;18.598;2022-10-14T14:39:24;23.13;;;11.07;;
70270;SDS011;57680;54.292;18.598;2022-10-14T14:41:53;24.38;;;10.90;;
70270;SDS011;57680;54.292;18.598;2022-10-14T14:44:23;27.08;;;11.30;;
70270;SDS011;57680;54.292;18.598;2022-10-14T14:46:51;23.13;;;11.35;;
70270;SDS011;57680;54.292;18.598;2022-10-14T14:49:26;22.25;;;11.40;;
70270;SDS011;57680;54.292;18.598;2022-10-14T14:51:54;25.20;;;12.87;;
70270;SDS011;57680;54.292;18.598;2022-10-14T14:54:21;25.50;;;13.02;;
70270;SDS011;57680;54.292;18.598;2022-10-14T14:57:08;25.60;;;12.90;;
70270;SDS011;57680;54.292;18.598;2022-10-14T14:59:38;32.58;;;17.15;;
70270;SDS011;57680;54.292;18.598;2022-10-14T15:02:14;35.90;;;17.33;;
70270;SDS011;57680;54.292;18.598;2022-10-14T15:04:43;37.77;;;19.20;;
70270;SDS011;57680;54.292;18.598;2022-10-14T15:07:16;39.95;;;19.38;;
70270;SDS011;57680;54.292;18.598;2022-10-14T15:14:47;37.70;;;19.20;;
70270;SDS011;57680;54.292;18.598;2022-10-14T15:22:29;36.92;;;20.02;;
70270;SDS011;57680;54.292;18.598;2022-10-14T15:25:01;40.45;;;19.55;;
70270;SDS011;57680;54.292;18.598;2022-10-14T15:33:35;38.30;;;19.23;;
70270;SDS011;57680;54.292;18.598;2022-10-14T15:35:43;36.28;;;19.25;;
70270;SDS011;57680;54.292;18.598;2022-10-14T15:38:14;40.30;;;20.35;;
70270;SDS011;57680;54.292;18.598;2022-10-14T15:40:41;42.33;;;21.58;;
70270;SDS011;57680;54.292;18.598;2022-10-14T15:43:13;44.97;;;23.10;;
70270;SDS011;57680;54.292;18.598;2022-10-14T15:45:42;38.33;;;21.73;;
70270;SDS011;57680;54.292;18.598;2022-10-14T15:48:13;43.22;;;21.95;;
70270;SDS011;57680;54.292;18.598;2022-10-14T15:50:43;42.05;;;20.83;;
70270;SDS011;57680;54.292;18.598;2022-10-14T15:53:12;45.25;;;21.85;;
70270;SDS011;57680;54.292;18.598;2022-10-14T15:55:38;41.50;;;20.23;;
70270;SDS011;57680;54.292;18.598;2022-10-14T15:58:04;44.15;;;21.92;;
70270;SDS011;57680;54.292;18.598;2022-10-14T16:00:29;41.00;;;20.43;;
70270;SDS011;57680;54.292;18.598;2022-10-14T16:02:56;45.17;;;22.65;;
70270;SDS011;57680;54.292;18.598;2022-10-14T16:05:26;55.60;;;24.63;;
70270;SDS011;57680;54.292;18.598;2022-10-14T16:07:53;61.97;;;25.17;;
70270;SDS011;57680;54.292;18.598;2022-10-14T16:10:21;51.57;;;24.60;;
70270;SDS011;57680;54.292;18.598;2022-10-14T16:12:48;48.97;;;23.58;;
70270;SDS011;57680;54.292;18.598;2022-10-14T16:17:56;67.85;;;25.45;;
70270;SDS011;57680;54.292;18.598;2022-10-14T16:20:22;59.00;;;25.13;;
70270;SDS011;57680;54.292;18.598;2022-10-14T16:22:47;53.78;;;25.98;;
70270;SDS011;57680;54.292;18.598;2022-10-14T16:25:17;52.42;;;26.48;;
70270;SDS011;57680;54.292;18.598;2022-10-14T16:27:48;49.63;;;24.13;;
70270;SDS011;57680;54.292;18.598;2022-10-14T16:30:14;49.40;;;24.40;;
70270;SDS011;57680;54.292;18.598;2022-10-14T16:32:41;53.10;;;23.95;;
70270;SDS011;57680;54.292;18.598;2022-10-14T16:35:07;51.63;;;24.55;;
70270;SDS011;57680;54.292;18.598;2022-10-14T16:37:35;50.20;;;23.33;;
70270;SDS011;57680;54.292;18.598;2022-10-14T16:40:02;51.17;;;23.48;;
70270;SDS011;57680;54.292;18.598;2022-10-14T16:42:28;46.45;;;22.95;;
70270;SDS011;57680;54.292;18.598;2022-10-14T16:44:54;46.93;;;23.00;;
70270;SDS011;57680;54.292;18.598;2022-10-14T16:47:19;47.20;;;22.88;;
70270;SDS011;57680;54.292;18.598;2022-10-14T16:49:47;50.08;;;24.23;;
70270;SDS011;57680;54.292;18.598;2022-10-14T16:52:16;48.85;;;23.75;;
70270;SDS011;57680;54.292;18.598;2022-10-14T16:54:42;49.93;;;23.37;;
70270;SDS011;57680;54.292;18.598;2022-10-14T16:57:07;54.42;;;25.67;;
70270;SDS011;57680;54.292;18.598;2022-10-14T16:59:33;60.43;;;25.37;;
70270;SDS011;57680;54.292;18.598;2022-10-14T17:01:59;63.00;;;24.90;;
70270;SDS011;57680;54.292;18.598;2022-10-14T17:04:25;55.53;;;26.20;;